AirNav   Everest Fuels
 
 884 users online  

AL33 Sturdy Oak Farm Airport
Perdido, Alabama, USA

GOING TO PERDIDO?


FAA INFORMATION EFFECTIVE 03 JANUARY 2019

Location

FAA Identifier: AL33
Lat/Long: 31-02-09.7100N / 087-35-37.7100W
31-02.161833N / 087-35.628500W
31.0360306 / -87.5938083
(estimated)
Elevation: 230 ft. / 70 m (estimated)
Variation: 01E (1985)
From city: 3 miles NE of PERDIDO, AL
Time zone: UTC -6 (UTC -5 during Daylight Saving Time)
Zip code: 36502

Airport Operations

Airport use: Private use. Permission required prior to landing
Activation date: 08/1988
Control tower: no
ARTCC: JACKSONVILLE CENTER
FSS: ANNISTON FLIGHT SERVICE STATION
Attendance: UNATNDD
Wind indicator: yes
Segmented circle: no

Nearby radio navigation aids

VOR radial/distance  VOR name  Freq  Var
MVCr202/28.3MONROEVILLE VORTAC116.8004E
BFMr039/34.8BROOKLEY VORTAC112.8004E
NUNr338/(36.4)SAUFLEY VOR108.8001E

Airport Services

Runway Information

Runway 3/21

Dimensions: 2100 x 100 ft. / 640 x 30 m
Surface: turf
RUNWAY 3  RUNWAY 21
Traffic pattern: leftleft
Obstructions: 50 ft. trees, 1300 ft. from runway25 ft. trees, 500 ft. from runway

Airport Ownership and Management from official FAA records

Ownership: Privately-owned
Owner: EICHOLD
165 S. GEORGIA AVE
MOBILE, AL 36604
Phone 251-438-4984
Manager: B. EICHOLD
165 S. GEORGIA AVE
MOBILE, AL 36604
Phone 251-438-4984
251-438-4984

Airport Operational Statistics

Aircraft based on the field: 1
Single engine airplanes: 1
    

Additional Remarks

AL AIR NATIONAL GUARD USES AIRPORT FOR AUX TRAINING FIELD.

Instrument Procedures

There are no published instrument procedures at AL33.

Some nearby airports with instrument procedures:

0R1 - Atmore Municipal Airport (8 nm E)
1R8 - Bay Minette Municipal Airport (15 nm SW)
12J - Brewton Municipal Airport (27 nm E)
KMVC - Monroe County Aeroplex Airport (28 nm NE)
4R3 - Jackson Municipal Airport (30 nm NW)
 
Loc | Ops | Rwys | IFR | FBO | Links
Com | Nav | Svcs | Stats | Notes

Continental Motors
AirBoss

 
Area around AL33 (Sturdy Oak Farm Airport)
 
Road maps at: MapQuest Bing Google
 
Aerial photo
No photo
 
Sectional chart

 
Airport distance calculator
Flying to Sturdy Oak Farm Airport? Find the distance to fly.

From to AL33

Sunrise and sunset
Times for 18-Jan-2019
 Local
(UTC-6)
 Zulu
(UTC)
Morning civil twilight06:2412:24
Sunrise06:5012:50
Sunset17:1223:12
Evening civil twilight17:3823:38

Current date and time
Zulu (UTC)  19-Jan-2019 02:05:09
Local (UTC-6)  18-Jan-2019 20:05:09
 
METAR
KBFM 
35nm SW 
190153Z 16005KT 7SM BKN048 15/14 A3003 RMK AO2 SLP168 T01500144
KNSE 
35nm SE 
190156Z 19005KT 10SM SCT150 BKN250 13/13 A3004 RMK AO2 SLP158 T01330128 $
KNDZ 
35nm SE 
190156Z 18005KT 7SM FEW130 BKN250 13/13 A3004 RMK AO2 SLP160 T01280128 $
KGZH 
36nm NE 
190153Z AUTO 00000KT 9SM CLR 14/12 A3002 RMK AO2 SLP166 T01390117
KCQF 
37nm SW 
190155Z AUTO 16004KT 10SM SCT025 OVC048 15/15 A3003 RMK AO2
2R4 
39nm SE 
SuperAWOS
190135Z AUTO 00000KT 14/13 A3002
KPNS 
39nm SE 
190153Z 20004KT 9SM CLR 15/13 A3004 RMK AO2 SLP173 T01500133
KMOB 
40nm SW 
190156Z 17008KT 7SM OVC047 16/14 A3001 RMK AO2 SLP162 T01560139
KNPA 
44nm S 
190156Z 19004KT 8SM BKN048 BKN250 16/15 A3003 RMK AO2 SLP170 T01560150
KJKA 
45nm S 
190155Z AUTO 00000KT 10SM OVC049 16/15 A3003 RMK AO2 LTG DSNT NW T01550145
TAF
KBFM 
35nm SW 
181727Z 1818/1918 VRB03KT P6SM OVC016 FM182000 19005KT P6SM SCT020 BKN250 FM190200 17006KT 5SM BR OVC012 FM190600 17004KT 2SM BR OVC004 TEMPO 1906/1910 1/2SM FG VV003 FM191200 17012KT 5SM BR VCSH OVC015 PROB30 1916/1918 3SM TSRA BKN012CB
KNSE 
35nm SE 
1823/1923 18005KT 9999 SCT015 BKN030 BKN150 OVC250 QNH2994INS TEMPO 1823/1901 4800 BR BKN003 OVC015 FM190200 17004KT 3200 BR BKN003 OVC007 QNH2992INS TEMPO 1902/1905 0800 FG VV000 FM190500 19005KT 1600 BR BKN002 OVC005 QNH2990INS FM191400 20008G16KT 9000 -RA BR BKN005 OVC015 QNH2985INS TEMPO 1914/1918 3200 SHRA BR OVC005 FM191900 24014G24KT 4800 +SHRA BR VCTS SCT005 BKN010 OVC020CB QNH2970INS TEMPO 1919/1923 VRB25G45KT 0800 +TSRA FG BKN005 OVC010CB AUTOMATED SENSOR METWATCH 1905 TIL 2212 T15/191
KPNS 
39nm SE 
181727Z 1818/1918 28006KT P6SM BKN012 FM182000 19007KT P6SM SCT020 BKN250 FM190600 18007KT 6SM BR OVC007 FM191200 17012KT 5SM BR VCSH OVC015
KMOB 
40nm SW 
181727Z 1818/1918 19005KT P6SM SCT005 OVC011 FM182000 19005KT P6SM SCT020 BKN250 FM190200 17006KT 5SM BR OVC012 FM190500 16007KT 2SM BR OVC004 TEMPO 1906/1910 1/2SM FG VV003 FM191200 17012KT 5SM BR VCSH OVC015 PROB30 1915/1918 3SM TSRA BKN012CB
KNPA 
44nm S 
1823/1923 22006KT 9999 FEW020 SCT180 BKN250 QNH3001INS FM190600 18010KT 9999 VCSH SCT008 BKN020 OVC045 QNH3000INS TEMPO 1909/1913 BKN008 OVC015 FM191500 19014G21KT 9000 BR VCSH SCT007 BKN015 OVC040 QNH2984INS TEMPO 1915/1921 6000 SHRA BKN007 OVC015 FM192100 19015G24KT 8000 BR VCTS BKN015 BKN030CB OVC060 QNH2970INS TEMPO 1921/1923 VRB25G35KT 1200 +TSRA SCT007 BKN025CB BKN080 OVC120 AUTOMATED SENSOR METWATCH 1903 TIL 1912 T16/1911Z T20/1919Z FN20034
NOTAMs
Click for the latest NOTAMs
NOTAMs are issued by the DoD/FAA and will open in a separate window not controlled by AirNav.

 

 
 

Would you like to see your business listed on this page?

 If your business provides an interesting product or service to pilots, flight crews, aircraft, or users of the Sturdy Oak Farm Airport, you should consider listing it here.  To start the listing process, click on the button below
 
Add a business
 

Other Pages about Sturdy Oak Farm Airport

Update a link
 
Copyright © AirNav, LLC. All rights reserved. Privacy Policy  Contact